createdAt,value
2023-02-21T00:01:07.654Z,98.72
2023-02-21T00:02:29.707Z,99.02
2023-02-21T00:03:52.620Z,99.31
2023-02-21T00:05:13.233Z,100.00
2023-02-21T00:06:33.754Z,100.00
2023-02-21T00:07:54.273Z,100.00
2023-02-21T00:09:14.210Z,100.00
2023-02-21T00:10:35.157Z,100.00
2023-02-21T00:12:00.578Z,100.00
2023-02-21T00:13:21.417Z,100.00
2023-02-21T00:14:41.567Z,100.00
2023-02-21T00:16:02.049Z,100.00
2023-02-21T00:17:22.436Z,100.00
2023-02-21T00:18:42.861Z,100.00
2023-02-21T00:20:03.227Z,100.00
2023-02-21T00:21:24.849Z,100.00
2023-02-21T00:22:45.387Z,100.00
2023-02-21T00:24:05.963Z,100.00
2023-02-21T00:25:26.109Z,100.00
2023-02-21T00:26:46.664Z,100.00
2023-02-21T00:28:07.078Z,100.00
2023-02-21T00:29:27.481Z,100.00
2023-02-21T00:30:48.196Z,100.00
2023-02-21T00:32:08.771Z,100.00
2023-02-21T00:33:29.364Z,100.00
2023-02-21T00:34:49.552Z,100.00
2023-02-21T00:36:09.608Z,100.00
2023-02-21T00:37:30.257Z,100.00
2023-02-21T00:38:50.950Z,100.00
2023-02-21T00:40:11.241Z,100.00
2023-02-21T00:41:31.412Z,100.00
2023-02-21T00:42:51.425Z,100.00
2023-02-21T00:44:11.691Z,100.00
2023-02-21T00:45:32.379Z,100.00
2023-02-21T00:46:53.376Z,100.00
2023-02-21T00:48:13.809Z,100.00
2023-02-21T00:49:34.506Z,100.00
2023-02-21T00:50:55.000Z,100.00
2023-02-21T00:52:15.071Z,100.00
2023-02-21T00:53:35.138Z,100.00
2023-02-21T00:54:56.147Z,100.00
2023-02-21T00:56:16.423Z,100.00
2023-02-21T00:57:37.578Z,99.63
2023-02-21T00:58:57.685Z,98.77
2023-02-21T01:00:18.045Z,98.26
2023-02-21T01:01:38.446Z,97.48
2023-02-21T01:02:58.922Z,97.51
2023-02-21T01:04:19.461Z,96.67
2023-02-21T01:05:40.362Z,97.21
2023-02-21T01:07:00.829Z,96.80
2023-02-21T01:08:21.022Z,96.72
2023-02-21T01:09:41.447Z,97.43
2023-02-21T01:11:02.042Z,97.93
2023-02-21T01:12:22.771Z,97.12
2023-02-21T01:13:43.271Z,96.37
2023-02-21T01:15:03.561Z,96.29
2023-02-21T01:16:26.328Z,95.98
2023-02-21T01:17:46.371Z,95.82
2023-02-21T01:19:07.808Z,95.76
2023-02-21T01:20:28.368Z,95.44
2023-02-21T01:21:49.357Z,95.94
2023-02-21T01:23:09.742Z,96.47
2023-02-21T01:24:34.020Z,96.34
2023-02-21T01:25:54.801Z,95.80
2023-02-21T01:27:15.503Z,95.45
2023-02-21T01:28:35.906Z,94.59
2023-02-21T01:29:56.783Z,94.37
2023-02-21T01:31:17.716Z,93.55
2023-02-21T01:32:38.521Z,92.89
2023-02-21T01:34:00.491Z,92.96
2023-02-21T01:35:21.210Z,92.83
2023-02-21T01:36:41.508Z,92.64
2023-02-21T01:38:01.863Z,92.80
2023-02-21T01:39:22.206Z,92.78
2023-02-21T01:40:42.802Z,92.87
2023-02-21T01:42:02.762Z,92.90
2023-02-21T01:43:33.123Z,92.84
2023-02-21T01:44:55.773Z,92.78
2023-02-21T01:46:16.100Z,93.43
2023-02-21T01:47:37.162Z,93.31
2023-02-21T01:48:57.947Z,93.32
2023-02-21T01:50:20.948Z,93.16
2023-02-21T01:51:50.338Z,94.62
2023-02-21T01:53:11.408Z,94.67
2023-02-21T01:54:32.585Z,96.04
2023-02-21T01:55:57.589Z,96.66
2023-02-21T01:57:21.144Z,96.91
2023-02-21T01:58:44.750Z,97.62
2023-02-21T02:00:10.334Z,99.24
2023-02-21T02:01:44.374Z,98.71
2023-02-21T02:03:16.551Z,98.96
2023-02-21T02:04:36.539Z,98.90
2023-02-21T02:05:58.676Z,99.75
2023-02-21T02:07:19.319Z,100.00
2023-02-21T02:08:45.829Z,100.00
2023-02-21T02:10:06.757Z,100.00
2023-02-21T02:11:37.085Z,100.00
2023-02-21T02:12:41.451Z,100.00
2023-02-21T02:14:15.495Z,100.00
2023-02-21T02:15:41.580Z,100.00
2023-02-21T02:16:50.534Z,100.00
2023-02-21T02:18:15.149Z,100.00
2023-02-21T02:19:37.778Z,100.00
2023-02-21T02:20:54.610Z,100.00
2023-02-21T02:22:17.822Z,100.00
2023-02-21T02:23:53.264Z,100.00
2023-02-21T02:25:16.342Z,100.00
2023-02-21T02:26:47.046Z,100.00
2023-02-21T02:28:18.894Z,100.00
2023-02-21T02:29:47.870Z,100.00
2023-02-21T02:30:50.452Z,100.00
2023-02-21T02:32:15.832Z,100.00
2023-02-21T02:34:03.326Z,100.00
2023-02-21T02:35:09.996Z,100.00
2023-02-21T02:36:39.509Z,99.65
2023-02-21T02:37:52.266Z,99.15
2023-02-21T02:39:32.770Z,97.62
2023-02-21T02:41:01.735Z,97.52
2023-02-21T02:42:42.573Z,97.12
2023-02-21T02:43:44.193Z,96.82
2023-02-21T02:45:01.619Z,96.23
2023-02-21T02:46:11.536Z,95.60
2023-02-21T02:47:23.709Z,95.37
2023-02-21T02:48:34.892Z,95.84
2023-02-21T02:49:41.229Z,95.60
2023-02-21T02:50:47.516Z,95.03
2023-02-21T02:51:50.139Z,94.70
2023-02-21T02:52:54.218Z,93.89
2023-02-21T02:53:56.114Z,93.88
2023-02-21T02:55:00.497Z,93.69
2023-02-21T02:56:06.150Z,93.87
2023-02-21T02:57:13.194Z,93.92
2023-02-21T02:58:17.649Z,93.45
2023-02-21T02:59:29.274Z,93.45
2023-02-21T03:00:34.610Z,93.35
2023-02-21T03:02:01.769Z,93.27
2023-02-21T03:03:41.112Z,93.48
2023-02-21T03:05:04.425Z,94.32
2023-02-21T03:06:15.524Z,94.46
2023-02-21T03:07:41.349Z,94.44
2023-02-21T03:08:56.375Z,94.28
2023-02-21T03:10:35.016Z,93.72
2023-02-21T03:11:48.493Z,94.19
2023-02-21T03:13:08.047Z,94.17
2023-02-21T03:14:15.799Z,94.13
2023-02-21T03:15:40.694Z,95.90
2023-02-21T03:16:55.763Z,96.09
2023-02-21T03:18:04.619Z,96.23
2023-02-21T03:19:13.813Z,96.28
2023-02-21T03:20:17.212Z,96.34
2023-02-21T03:21:24.976Z,96.44
2023-02-21T03:22:30.750Z,96.81
2023-02-21T03:23:35.980Z,96.79
2023-02-21T03:24:44.458Z,97.03
2023-02-21T03:25:48.148Z,97.04
2023-02-21T03:26:53.960Z,97.19
2023-02-21T03:27:55.642Z,98.34
2023-02-21T03:28:57.895Z,98.31
2023-02-21T03:30:04.532Z,98.47
2023-02-21T03:31:13.579Z,98.93
2023-02-21T03:32:27.192Z,99.38
2023-02-21T03:33:29.032Z,99.67
2023-02-21T03:34:30.589Z,100.00
2023-02-21T03:35:32.311Z,100.00
2023-02-21T03:36:34.779Z,100.00
2023-02-21T03:37:42.729Z,100.00
2023-02-21T03:38:44.292Z,100.00
2023-02-21T03:39:46.033Z,100.00
2023-02-21T03:40:47.934Z,100.00
2023-02-21T03:41:49.458Z,100.00
2023-02-21T03:42:51.907Z,100.00
2023-02-21T03:43:53.642Z,100.00
2023-02-21T03:44:55.690Z,100.00
2023-02-21T03:45:57.535Z,100.00
2023-02-21T03:46:59.435Z,100.00
2023-02-21T03:48:01.254Z,100.00
2023-02-21T03:49:03.299Z,100.00
2023-02-21T03:50:05.367Z,100.00
2023-02-21T03:51:07.175Z,100.00
2023-02-21T03:52:12.806Z,100.00
2023-02-21T03:53:14.662Z,100.00
2023-02-21T03:54:16.563Z,100.00
2023-02-21T03:55:19.330Z,100.00
2023-02-21T03:56:24.321Z,100.00
2023-02-21T03:57:27.980Z,100.00
2023-02-21T03:58:29.798Z,100.00
2023-02-21T03:59:32.289Z,100.00
2023-02-21T04:00:34.801Z,100.00
2023-02-21T04:01:37.120Z,100.00
2023-02-21T04:02:38.867Z,100.00
2023-02-21T04:03:40.926Z,100.00
2023-02-21T04:04:42.840Z,100.00
2023-02-21T04:05:44.558Z,100.00
2023-02-21T04:06:46.171Z,100.00
2023-02-21T04:07:47.915Z,100.00
2023-02-21T04:08:52.002Z,100.00
2023-02-21T04:09:54.278Z,100.00
2023-02-21T04:10:55.804Z,100.00
2023-02-21T04:11:57.762Z,100.00
2023-02-21T04:13:00.296Z,100.00
2023-02-21T04:14:05.806Z,100.00
2023-02-21T04:15:08.360Z,100.00
2023-02-21T04:16:10.066Z,100.00
2023-02-21T04:17:11.810Z,100.00
2023-02-21T04:18:13.530Z,100.00
2023-02-21T04:19:16.198Z,100.00
2023-02-21T04:20:18.289Z,100.00
2023-02-21T04:21:20.165Z,100.00
2023-02-21T04:22:22.698Z,100.00
2023-02-21T04:23:24.364Z,100.00
2023-02-21T04:24:26.467Z,100.00
2023-02-21T04:25:28.087Z,100.00
2023-02-21T04:26:30.089Z,100.00
2023-02-21T04:27:31.770Z,100.00
2023-02-21T04:28:33.805Z,100.00
2023-02-21T04:29:35.453Z,100.00
2023-02-21T04:30:41.135Z,100.00
2023-02-21T04:31:43.000Z,100.00
2023-02-21T04:32:44.765Z,100.00
2023-02-21T04:33:46.549Z,100.00
2023-02-21T04:34:48.139Z,100.00
2023-02-21T04:35:51.455Z,100.00
2023-02-21T04:36:53.137Z,100.00
2023-02-21T04:37:54.856Z,100.00
2023-02-21T04:38:56.836Z,100.00
2023-02-21T04:39:59.106Z,100.00
2023-02-21T04:41:00.839Z,100.00
2023-02-21T04:42:02.786Z,100.00
2023-02-21T04:43:04.390Z,100.00
2023-02-21T04:44:06.469Z,100.00
2023-02-21T04:45:08.309Z,100.00
2023-02-21T04:46:11.255Z,100.00
2023-02-21T04:47:12.922Z,100.00
2023-02-21T04:48:15.060Z,100.00
2023-02-21T04:49:16.909Z,100.00
2023-02-21T04:50:18.894Z,100.00
2023-02-21T04:51:24.526Z,100.00
2023-02-21T04:52:26.552Z,100.00
2023-02-21T04:53:28.138Z,100.00
2023-02-21T04:54:29.949Z,100.00
2023-02-21T04:55:31.796Z,100.00
2023-02-21T04:56:34.083Z,100.00
2023-02-21T04:57:35.820Z,100.00
2023-02-21T04:58:44.809Z,100.00
2023-02-21T04:59:47.224Z,100.00
2023-02-21T05:00:48.885Z,100.00
2023-02-21T05:01:50.610Z,100.00
2023-02-21T05:02:52.255Z,100.00
2023-02-21T05:03:53.983Z,100.00
2023-02-21T05:04:55.776Z,100.00
2023-02-21T05:05:57.568Z,100.00
2023-02-21T05:07:00.374Z,100.00
2023-02-21T05:08:02.311Z,100.00
2023-02-21T05:09:04.410Z,100.00
2023-02-21T05:10:06.728Z,100.00
2023-02-21T05:11:08.890Z,100.00
2023-02-21T05:12:12.099Z,100.00
2023-02-21T05:13:14.914Z,100.00
2023-02-21T05:14:18.338Z,100.00
2023-02-21T05:15:20.390Z,100.00
2023-02-21T05:16:22.199Z,100.00
2023-02-21T05:17:24.105Z,100.00
2023-02-21T05:18:28.853Z,100.00
2023-02-21T05:19:30.507Z,100.00
2023-02-21T05:20:32.338Z,100.00
2023-02-21T05:21:36.054Z,100.00
2023-02-21T05:22:40.387Z,100.00
2023-02-21T05:23:43.114Z,100.00
2023-02-21T05:24:44.861Z,100.00
2023-02-21T05:25:46.663Z,100.00
2023-02-21T05:26:48.415Z,100.00
2023-02-21T05:27:53.515Z,100.00
2023-02-21T05:28:55.297Z,100.00
2023-02-21T05:29:56.901Z,100.00
2023-02-21T05:31:00.964Z,100.00
2023-02-21T05:32:03.113Z,100.00
2023-02-21T05:33:04.843Z,100.00
2023-02-21T05:34:06.563Z,100.00
2023-02-21T05:35:09.733Z,100.00
2023-02-21T05:36:11.516Z,100.00
2023-02-21T05:37:17.631Z,100.00
2023-02-21T05:38:21.970Z,100.00
2023-02-21T05:39:23.739Z,100.00
2023-02-21T05:40:25.925Z,100.00
2023-02-21T05:41:27.734Z,100.00
2023-02-21T05:42:29.428Z,100.00
2023-02-21T05:43:33.900Z,100.00
2023-02-21T05:44:36.000Z,100.00
2023-02-21T05:45:37.794Z,100.00
2023-02-21T05:46:39.645Z,100.00
2023-02-21T05:47:41.378Z,100.00
2023-02-21T05:48:42.954Z,100.00
2023-02-21T05:49:45.266Z,100.00
2023-02-21T05:50:46.972Z,100.00
2023-02-21T05:51:48.771Z,100.00
2023-02-21T05:52:50.395Z,100.00
2023-02-21T05:53:52.514Z,100.00
2023-02-21T05:54:54.623Z,100.00
2023-02-21T05:55:56.375Z,100.00
2023-02-21T05:56:57.971Z,100.00
2023-02-21T05:58:00.139Z,100.00
2023-02-21T05:59:01.824Z,100.00
2023-02-21T06:00:03.827Z,100.00
2023-02-21T06:01:05.887Z,100.00
2023-02-21T06:02:07.567Z,100.00
2023-02-21T06:03:09.561Z,100.00
2023-02-21T06:04:11.294Z,100.00
2023-02-21T06:05:13.548Z,100.00
2023-02-21T06:06:16.411Z,100.00
2023-02-21T06:07:18.823Z,100.00
2023-02-21T06:08:20.648Z,100.00
2023-02-21T06:09:22.508Z,100.00
2023-02-21T06:10:24.169Z,100.00
2023-02-21T06:11:33.329Z,100.00
2023-02-21T06:12:35.066Z,100.00
2023-02-21T06:13:36.713Z,100.00
2023-02-21T06:14:38.316Z,100.00
2023-02-21T06:15:40.006Z,100.00
2023-02-21T06:16:41.976Z,100.00
2023-02-21T06:17:43.773Z,100.00
2023-02-21T06:18:45.399Z,100.00
2023-02-21T06:19:46.974Z,100.00
2023-02-21T06:20:48.713Z,100.00
2023-02-21T06:21:53.065Z,99.60
2023-02-21T06:22:54.758Z,99.49
2023-02-21T06:23:56.701Z,99.63
2023-02-21T06:24:58.392Z,100.00
2023-02-21T06:26:00.134Z,99.54
2023-02-21T06:27:01.731Z,99.67
2023-02-21T06:28:03.804Z,99.49
2023-02-21T06:29:05.710Z,99.12
2023-02-21T06:30:07.889Z,99.34
2023-02-21T06:31:09.955Z,99.43
2023-02-21T06:32:12.254Z,99.64
2023-02-21T06:33:14.074Z,100.00
2023-02-21T06:34:15.648Z,100.00
2023-02-21T06:35:17.455Z,99.77
2023-02-21T06:36:24.155Z,99.76
2023-02-21T06:37:26.214Z,100.00
2023-02-21T06:38:29.023Z,99.54
2023-02-21T06:39:30.903Z,99.49
2023-02-21T06:40:32.608Z,98.82
2023-02-21T06:41:34.241Z,98.50
2023-02-21T06:42:37.136Z,98.52
2023-02-21T06:43:39.698Z,98.42
2023-02-21T06:44:47.377Z,97.99
2023-02-21T06:45:48.950Z,97.87
2023-02-21T06:46:50.780Z,98.07
2023-02-21T06:47:52.686Z,98.24
2023-02-21T06:48:55.614Z,98.49
2023-02-21T06:49:57.312Z,98.52
2023-02-21T06:51:00.169Z,98.38
2023-02-21T06:52:01.938Z,98.94
2023-02-21T06:53:04.009Z,98.96
2023-02-21T06:54:07.909Z,99.32
2023-02-21T06:55:09.688Z,98.75
2023-02-21T06:56:12.419Z,98.13
2023-02-21T06:57:14.221Z,97.84
2023-02-21T06:58:16.574Z,97.30
2023-02-21T06:59:18.946Z,97.01
2023-02-21T07:00:21.739Z,96.58
2023-02-21T07:01:26.250Z,96.04
2023-02-21T07:02:28.104Z,95.71
2023-02-21T07:03:30.225Z,95.12
2023-02-21T07:04:32.967Z,95.68
2023-02-21T07:05:36.910Z,95.48
2023-02-21T07:06:39.078Z,96.04
2023-02-21T07:07:43.028Z,96.07
2023-02-21T07:08:45.342Z,95.76
2023-02-21T07:09:47.169Z,96.16
2023-02-21T07:10:48.969Z,96.55
2023-02-21T07:11:51.835Z,96.21
2023-02-21T07:12:53.472Z,96.48
2023-02-21T07:13:59.818Z,96.02
2023-02-21T07:15:01.970Z,96.34
2023-02-21T07:16:05.383Z,96.07
2023-02-21T07:17:07.636Z,95.46
2023-02-21T07:18:09.383Z,95.08
2023-02-21T07:20:18.404Z,94.66
2023-02-21T07:21:21.744Z,94.51
2023-02-21T07:22:26.698Z,94.08
2023-02-21T07:23:28.972Z,93.91
2023-02-21T07:24:31.523Z,93.50
2023-02-21T07:25:36.489Z,93.08
2023-02-21T07:26:41.279Z,93.21
2023-02-21T07:27:43.053Z,93.16
2023-02-21T07:28:51.263Z,93.06
2023-02-21T07:29:53.774Z,92.92
2023-02-21T07:30:56.701Z,92.64
2023-02-21T07:31:58.913Z,90.11
2023-02-21T07:33:01.356Z,88.33
2023-02-21T07:34:04.177Z,87.83
2023-02-21T07:35:06.809Z,87.14
2023-02-21T07:36:09.907Z,86.25
2023-02-21T07:37:12.458Z,82.97
2023-02-21T07:38:29.204Z,79.91
2023-02-21T07:39:31.203Z,77.20
2023-02-21T07:40:33.689Z,74.07
2023-02-21T07:41:38.871Z,71.01
2023-02-21T07:42:44.351Z,69.05
2023-02-21T07:43:46.597Z,66.13
2023-02-21T07:44:48.932Z,63.54
2023-02-21T07:45:50.650Z,60.71
2023-02-21T07:46:52.434Z,58.58
2023-02-21T07:47:54.805Z,59.49
2023-02-21T07:48:56.560Z,57.36
2023-02-21T07:49:58.612Z,55.89
2023-02-21T07:51:00.938Z,56.74
2023-02-21T07:52:03.437Z,55.49
2023-02-21T07:53:11.123Z,54.89
2023-02-21T07:54:13.459Z,56.09
2023-02-21T07:55:15.905Z,55.52
2023-02-21T07:56:18.096Z,57.84
2023-02-21T07:57:20.088Z,57.82
2023-02-21T07:58:22.040Z,57.26
2023-02-21T07:59:24.352Z,56.41
2023-02-21T08:00:28.249Z,56.81
2023-02-21T08:01:30.833Z,56.65
2023-02-21T08:02:35.685Z,55.08
2023-02-21T08:03:41.867Z,54.59
2023-02-21T08:04:50.639Z,54.36
2023-02-21T08:05:52.804Z,53.30
2023-02-21T08:07:02.864Z,52.62
2023-02-21T08:08:09.201Z,52.67
2023-02-21T08:09:11.487Z,50.97
2023-02-21T08:10:19.778Z,50.23
2023-02-21T08:11:22.901Z,48.09
2023-02-21T08:12:25.622Z,46.60
2023-02-21T08:13:28.322Z,44.92
2023-02-21T08:14:30.343Z,44.69
2023-02-21T08:15:32.392Z,43.39
2023-02-21T08:16:36.799Z,42.84
2023-02-21T08:17:39.294Z,41.65
2023-02-21T08:18:42.998Z,41.07
2023-02-21T08:19:45.111Z,40.21
2023-02-21T08:20:48.225Z,40.27
2023-02-21T08:21:51.973Z,41.31
2023-02-21T08:22:54.174Z,41.54
2023-02-21T08:23:56.380Z,39.26
2023-02-21T08:24:58.662Z,38.87
2023-02-21T08:26:00.584Z,39.10
2023-02-21T08:27:02.282Z,39.62
2023-02-21T08:28:04.023Z,40.46
2023-02-21T08:29:06.473Z,39.15
2023-02-21T08:30:11.680Z,39.09
2023-02-21T08:31:14.616Z,38.90
2023-02-21T08:32:17.463Z,37.77
2023-02-21T08:33:19.624Z,38.37
2023-02-21T08:34:21.349Z,38.03
2023-02-21T08:35:23.166Z,38.73
2023-02-21T08:36:32.047Z,38.06
2023-02-21T08:37:36.425Z,37.31
2023-02-21T08:38:39.822Z,36.88
2023-02-21T08:39:46.255Z,37.04
2023-02-21T08:40:47.930Z,37.36
2023-02-21T08:41:51.217Z,38.30
2023-02-21T08:42:54.246Z,37.92
2023-02-21T08:43:56.914Z,37.69
2023-02-21T08:44:58.758Z,36.55
2023-02-21T08:46:01.803Z,36.13
2023-02-21T08:47:04.022Z,35.21
2023-02-21T08:48:05.877Z,34.97
2023-02-21T08:49:09.861Z,35.27
2023-02-21T08:50:13.101Z,34.65
2023-02-21T08:51:15.129Z,33.53
2023-02-21T08:52:18.544Z,34.66
2023-02-21T08:53:20.644Z,35.23
2023-02-21T08:54:23.342Z,34.77
2023-02-21T08:55:25.791Z,33.91
2023-02-21T08:56:28.766Z,33.84
2023-02-21T08:57:31.364Z,33.46
2023-02-21T08:58:33.291Z,32.82
2023-02-21T08:59:35.246Z,32.30
2023-02-21T09:00:37.486Z,32.97
2023-02-21T09:01:39.322Z,33.55
2023-02-21T09:02:41.808Z,33.37
2023-02-21T09:03:43.866Z,32.44
2023-02-21T09:04:46.020Z,33.53
2023-02-21T09:05:48.208Z,33.85
2023-02-21T09:06:52.142Z,33.98
2023-02-21T09:07:58.933Z,33.85
2023-02-21T09:09:01.026Z,33.21
2023-02-21T09:10:04.038Z,32.85
2023-02-21T09:11:06.128Z,31.45
2023-02-21T09:12:08.598Z,32.75
2023-02-21T09:13:10.349Z,32.99
2023-02-21T09:14:12.265Z,33.04
2023-02-21T09:15:15.778Z,32.88
2023-02-21T09:16:17.934Z,32.04
2023-02-21T09:17:19.869Z,30.89
2023-02-21T09:18:22.521Z,31.11
2023-02-21T09:19:24.722Z,30.41
2023-02-21T09:20:27.498Z,30.26
2023-02-21T09:21:29.854Z,30.48
2023-02-21T09:22:32.735Z,30.29
2023-02-21T09:23:35.087Z,29.08
2023-02-21T09:24:38.136Z,29.51
2023-02-21T09:25:41.008Z,29.59
2023-02-21T09:26:42.867Z,28.44
2023-02-21T09:27:45.436Z,28.13
2023-02-21T09:28:47.727Z,28.22
2023-02-21T09:29:49.731Z,28.76
2023-02-21T09:30:51.811Z,28.08
2023-02-21T09:31:54.557Z,28.47
2023-02-21T09:32:56.979Z,28.79
2023-02-21T09:34:00.865Z,29.55
2023-02-21T09:35:04.617Z,30.56
2023-02-21T09:36:10.215Z,30.53
2023-02-21T09:37:12.369Z,30.19
2023-02-21T09:38:14.817Z,29.89
2023-02-21T09:39:19.009Z,29.18
2023-02-21T09:40:30.319Z,28.55
2023-02-21T09:41:34.786Z,30.20
2023-02-21T09:42:37.731Z,30.92
2023-02-21T09:43:54.974Z,31.54
2023-02-21T09:44:57.407Z,30.92
2023-02-21T09:46:02.603Z,30.36
2023-02-21T09:47:07.189Z,30.14
2023-02-21T09:48:15.298Z,30.32
2023-02-21T09:49:24.268Z,30.26
2023-02-21T09:50:32.227Z,28.47
2023-02-21T09:51:37.393Z,28.06
2023-02-21T09:52:41.638Z,27.59
2023-02-21T09:53:46.473Z,27.68
2023-02-21T09:54:54.644Z,27.58
2023-02-21T09:56:02.572Z,26.88
2023-02-21T09:57:10.942Z,26.48
2023-02-21T09:58:15.989Z,27.12
2023-02-21T09:59:18.443Z,27.34
2023-02-21T10:00:26.349Z,26.70
2023-02-21T10:02:05.583Z,28.47
2023-02-21T10:03:19.162Z,28.26
2023-02-21T10:04:58.183Z,27.41
2023-02-21T10:06:34.665Z,26.97
2023-02-21T10:07:51.563Z,26.99
2023-02-21T10:09:21.435Z,26.55
2023-02-21T10:10:40.335Z,27.11
2023-02-21T10:12:06.543Z,27.54
2023-02-21T10:13:43.418Z,26.86
2023-02-21T10:15:18.180Z,27.76
2023-02-21T10:16:36.565Z,26.70
2023-02-21T10:18:03.829Z,25.79
2023-02-21T10:19:32.374Z,27.62
2023-02-21T10:21:05.123Z,27.23
2023-02-21T10:22:31.572Z,27.05
2023-02-21T10:23:55.899Z,26.89
2023-02-21T10:24:58.757Z,26.38
2023-02-21T10:26:13.244Z,26.29
2023-02-21T10:27:22.828Z,26.40
2023-02-21T10:28:26.878Z,26.24
2023-02-21T10:30:10.817Z,26.33
2023-02-21T10:31:23.699Z,26.75
2023-02-21T10:32:26.049Z,26.67
2023-02-21T10:33:28.880Z,26.20
2023-02-21T10:34:33.963Z,25.83
2023-02-21T10:35:39.560Z,26.11
2023-02-21T10:36:41.608Z,25.52
2023-02-21T10:37:51.552Z,25.94
2023-02-21T10:39:22.031Z,25.65
2023-02-21T10:40:39.839Z,25.40
2023-02-21T10:41:43.057Z,25.58
2023-02-21T10:42:52.303Z,25.21
2023-02-21T10:44:03.804Z,25.34
2023-02-21T10:45:07.919Z,25.54
2023-02-21T10:46:22.181Z,25.91
2023-02-21T10:47:45.595Z,25.60
2023-02-21T10:48:52.818Z,25.28
2023-02-21T10:50:02.359Z,24.84
2023-02-21T10:51:12.098Z,25.29
2023-02-21T10:52:17.568Z,25.29
2023-02-21T10:53:32.158Z,25.36
2023-02-21T10:54:35.352Z,25.53
2023-02-21T10:55:37.701Z,25.35
2023-02-21T10:56:39.597Z,25.21
2023-02-21T10:57:44.949Z,24.74
2023-02-21T10:59:07.886Z,25.00
2023-02-21T11:00:21.255Z,24.98
2023-02-21T11:01:26.120Z,24.81
2023-02-21T11:02:33.943Z,24.36
2023-02-21T11:03:35.952Z,24.34
2023-02-21T11:04:41.105Z,24.44
2023-02-21T11:05:50.634Z,24.60
2023-02-21T11:06:59.542Z,24.73
2023-02-21T11:08:09.117Z,24.77
2023-02-21T11:09:35.869Z,24.47
2023-02-21T11:10:42.488Z,24.63
2023-02-21T11:11:45.131Z,24.30
2023-02-21T11:13:03.582Z,24.49
2023-02-21T11:14:17.800Z,25.00
2023-02-21T11:15:20.175Z,24.72
2023-02-21T11:16:24.893Z,24.61
2023-02-21T11:17:34.633Z,24.62
2023-02-21T11:18:36.332Z,25.29
2023-02-21T11:19:51.102Z,24.71
2023-02-21T11:20:54.410Z,24.51
2023-02-21T11:21:57.726Z,24.66
2023-02-21T11:23:00.374Z,24.20
2023-02-21T11:24:06.316Z,24.17
2023-02-21T11:25:32.033Z,23.75
2023-02-21T11:26:48.081Z,24.42
2023-02-21T11:28:04.746Z,24.16
2023-02-21T11:29:14.861Z,25.39
2023-02-21T11:30:21.377Z,25.37
2023-02-21T11:31:29.704Z,25.54
2023-02-21T11:32:36.963Z,24.61
2023-02-21T11:33:56.166Z,24.85
2023-02-21T11:35:05.045Z,25.99
2023-02-21T11:36:16.249Z,26.07
2023-02-21T11:37:21.139Z,26.14
2023-02-21T11:38:43.616Z,26.36
2023-02-21T11:39:52.291Z,26.26
2023-02-21T11:40:54.998Z,26.02
2023-02-21T11:41:58.768Z,25.92
2023-02-21T11:43:20.890Z,25.85
2023-02-21T11:44:31.681Z,26.25
2023-02-21T11:45:36.457Z,26.28
2023-02-21T11:46:51.105Z,26.13
2023-02-21T11:48:06.722Z,25.70
2023-02-21T11:49:14.913Z,26.22
2023-02-21T11:50:32.593Z,25.98
2023-02-21T11:51:43.151Z,26.30
2023-02-21T11:53:04.295Z,26.72
2023-02-21T11:54:07.031Z,26.50
2023-02-21T11:55:15.591Z,26.34
2023-02-21T11:56:26.463Z,26.53
2023-02-21T11:57:46.151Z,26.26
2023-02-21T11:59:18.015Z,26.24
2023-02-21T12:00:28.667Z,26.17
2023-02-21T12:01:34.700Z,26.36
2023-02-21T12:03:00.649Z,26.53
2023-02-21T12:04:29.439Z,26.31
2023-02-21T12:05:43.817Z,26.56
2023-02-21T12:07:05.800Z,26.00
2023-02-21T12:08:30.694Z,26.65
2023-02-21T12:09:38.140Z,26.49
2023-02-21T12:11:11.240Z,25.75
2023-02-21T12:12:25.101Z,25.48
2023-02-21T12:13:31.032Z,25.51
2023-02-21T12:14:57.274Z,25.08
2023-02-21T12:16:35.202Z,25.89
2023-02-21T12:17:44.751Z,26.02
2023-02-21T12:19:20.267Z,25.56
2023-02-21T12:20:57.894Z,25.24
2023-02-21T12:22:24.614Z,24.63
2023-02-21T12:23:41.450Z,24.77
2023-02-21T12:25:15.307Z,24.98
2023-02-21T12:26:30.756Z,25.26
2023-02-21T12:27:55.895Z,25.41
2023-02-21T12:29:32.908Z,25.47
2023-02-21T12:30:44.068Z,25.73
2023-02-21T12:31:59.114Z,25.73
2023-02-21T12:33:19.491Z,25.41
2023-02-21T12:35:11.178Z,25.80
2023-02-21T12:36:50.810Z,25.24
2023-02-21T12:38:28.214Z,25.63
2023-02-21T12:39:59.806Z,25.56
2023-02-21T12:41:41.554Z,24.69
2023-02-21T12:43:21.162Z,25.76
2023-02-21T12:44:38.090Z,25.48
2023-02-21T12:46:10.217Z,24.68
2023-02-21T12:47:19.340Z,25.38
2023-02-21T12:48:35.436Z,24.54
2023-02-21T12:49:53.926Z,25.09
2023-02-21T12:51:04.736Z,25.21
2023-02-21T12:52:22.081Z,25.00
2023-02-21T12:53:42.622Z,25.35
2023-02-21T12:55:13.419Z,25.30
2023-02-21T12:56:27.828Z,24.91
2023-02-21T12:57:47.063Z,24.46
2023-02-21T12:58:56.883Z,24.88
2023-02-21T13:00:22.257Z,24.86
2023-02-21T13:01:32.965Z,25.24
2023-02-21T13:02:45.642Z,25.11
2023-02-21T13:04:09.180Z,24.44
2023-02-21T13:05:19.546Z,24.96
2023-02-21T13:06:38.474Z,25.05
2023-02-21T13:08:05.273Z,24.55
2023-02-21T13:09:07.089Z,24.40
2023-02-21T13:10:32.981Z,24.56
2023-02-21T13:12:04.222Z,24.30
2023-02-21T13:13:11.955Z,24.27
2023-02-21T13:14:18.487Z,24.85
2023-02-21T13:15:23.047Z,24.80
2023-02-21T13:16:25.324Z,25.07
2023-02-21T13:17:27.605Z,25.26
2023-02-21T13:18:59.519Z,25.09
2023-02-21T13:20:18.066Z,25.50
2023-02-21T13:21:28.893Z,24.28
2023-02-21T13:23:27.318Z,24.79
2023-02-21T13:25:04.699Z,25.19
2023-02-21T13:26:12.050Z,24.32
2023-02-21T13:27:35.495Z,24.05
2023-02-21T13:28:38.873Z,24.33
2023-02-21T13:29:42.570Z,24.37
2023-02-21T13:31:05.374Z,24.09
2023-02-21T13:32:14.109Z,24.49
2023-02-21T13:33:24.727Z,24.39
2023-02-21T13:34:31.002Z,23.91
2023-02-21T13:35:36.984Z,25.06
2023-02-21T13:36:39.056Z,25.24
2023-02-21T13:37:47.211Z,25.56
2023-02-21T13:39:14.083Z,25.06
2023-02-21T13:40:23.801Z,25.40
2023-02-21T13:41:28.950Z,25.10
2023-02-21T13:42:32.182Z,25.08
2023-02-21T13:43:36.662Z,25.46
2023-02-21T13:44:46.321Z,24.62
2023-02-21T13:45:48.066Z,24.65
2023-02-21T13:46:52.393Z,24.51
2023-02-21T13:48:00.201Z,24.10
2023-02-21T13:49:39.953Z,24.79
2023-02-21T13:50:53.534Z,24.68
2023-02-21T13:52:15.600Z,24.60
2023-02-21T13:53:35.491Z,24.79
2023-02-21T13:55:15.301Z,24.98
2023-02-21T13:56:18.074Z,25.66
2023-02-21T13:57:30.719Z,24.96
2023-02-21T13:58:44.962Z,24.61
2023-02-21T13:59:46.793Z,24.81
2023-02-21T14:01:20.915Z,24.56
2023-02-21T14:02:34.603Z,24.62
2023-02-21T14:03:36.914Z,24.63
2023-02-21T14:04:57.157Z,24.14
2023-02-21T14:05:58.841Z,24.18
2023-02-21T14:07:01.535Z,24.40
2023-02-21T14:08:07.434Z,24.63
2023-02-21T14:09:19.265Z,24.26
2023-02-21T14:10:27.051Z,24.10
2023-02-21T14:11:35.675Z,23.97
2023-02-21T14:12:37.688Z,24.14
2023-02-21T14:14:02.405Z,24.21
2023-02-21T14:15:08.570Z,23.90
2023-02-21T14:16:13.846Z,24.15
2023-02-21T14:17:16.287Z,24.22
2023-02-21T14:18:26.477Z,24.50
2023-02-21T14:19:30.903Z,24.27
2023-02-21T14:20:36.484Z,24.43
2023-02-21T14:21:43.846Z,24.22
2023-02-21T14:22:45.859Z,23.82
2023-02-21T14:23:52.280Z,24.34
2023-02-21T14:25:06.907Z,24.14
2023-02-21T14:26:34.153Z,24.72
2023-02-21T14:27:38.471Z,24.37
2023-02-21T14:28:53.209Z,24.49
2023-02-21T14:30:01.409Z,24.32
2023-02-21T14:31:03.630Z,24.49
2023-02-21T14:32:08.089Z,24.37
2023-02-21T14:33:36.597Z,24.51
2023-02-21T14:34:50.154Z,24.98
2023-02-21T14:36:04.470Z,25.18
2023-02-21T14:37:15.846Z,25.13
2023-02-21T14:38:27.194Z,24.88
2023-02-21T14:39:35.906Z,24.95
2023-02-21T14:41:05.870Z,25.58
2023-02-21T14:42:35.515Z,25.66
2023-02-21T14:43:40.443Z,25.21
2023-02-21T14:45:17.679Z,24.96
2023-02-21T14:46:48.811Z,24.65
2023-02-21T14:48:27.866Z,24.77
2023-02-21T14:50:17.036Z,25.29
2023-02-21T14:52:01.455Z,25.19
2023-02-21T14:53:21.262Z,25.49
2023-02-21T14:54:53.751Z,25.44
2023-02-21T14:56:32.875Z,25.51
2023-02-21T14:57:46.785Z,24.92
2023-02-21T14:58:55.856Z,25.06